GRMLN EGGD-EGFF
Flight info
| Callsign | GRMLN |
|---|---|
| Flight time | 0h 23m |
| Altitude | 1500 |
| Route | EGGD DCT EGFF |
| Aircraft | P28A/L-SFG/C |
Departure
| Time | 2026-05-07 15:35 |
|---|---|
| Airport | Bristol Airport (EGGD) |
Arrival
| Time | 2026-05-07 15:58 |
|---|---|
| Airport | Cardiff International Airport (EGFF) |
| Time | Latitude | Longitude | Altitude | Speed | Heading |
|---|---|---|---|---|---|
| 2026-05-07 15:21 | 51.37913 | -2.70971 | 603 ft | 0 kts | 293° |
| 2026-05-07 15:30 | 51.37918 | -2.70989 | 612 ft | 4 kts | 298° |
| 2026-05-07 15:31 | 51.37946 | -2.71020 | 610 ft | 8 kts | 22° |
| 2026-05-07 15:31 | 51.38003 | -2.70980 | 602 ft | 10 kts | 27° |
| 2026-05-07 15:31 | 51.38046 | -2.70956 | 601 ft | 1 kts | 20° |
| 2026-05-07 15:31 | 51.38059 | -2.70947 | 600 ft | 3 kts | 24° |
| 2026-05-07 15:32 | 51.38102 | -2.70923 | 599 ft | 2 kts | 19° |
| 2026-05-07 15:33 | 51.38106 | -2.70920 | 599 ft | 4 kts | 20° |
| 2026-05-07 15:33 | 51.38181 | -2.70878 | 597 ft | 17 kts | 20° |
| 2026-05-07 15:33 | 51.38287 | -2.70810 | 601 ft | 7 kts | 22° |
| 2026-05-07 15:34 | 51.38311 | -2.70821 | 601 ft | 0 kts | 262° |
| 2026-05-07 15:34 | 51.38301 | -2.71057 | 597 ft | 53 kts | 266° |
| 2026-05-07 15:34 | 51.38275 | -2.71868 | 734 ft | 79 kts | 266° |
| 2026-05-07 15:34 | 51.38296 | -2.72751 | 1032 ft | 82 kts | 270° |
| 2026-05-07 15:35 | 51.38528 | -2.73591 | 1225 ft | 90 kts | 308° |
| 2026-05-07 15:35 | 51.39018 | -2.74283 | 1313 ft | 98 kts | 310° |
| 2026-05-07 15:35 | 51.39551 | -2.75047 | 1370 ft | 109 kts | 308° |
| 2026-05-07 15:35 | 51.40030 | -2.75893 | 1380 ft | 97 kts | 303° |
| 2026-05-07 15:36 | 51.40475 | -2.76698 | 1402 ft | 95 kts | 304° |
| 2026-05-07 15:36 | 51.40862 | -2.77552 | 1415 ft | 97 kts | 296° |
| 2026-05-07 15:36 | 51.41245 | -2.78451 | 1445 ft | 97 kts | 294° |
| 2026-05-07 15:36 | 51.41625 | -2.79405 | 1415 ft | 103 kts | 297° |
| 2026-05-07 15:37 | 51.42002 | -2.80371 | 1441 ft | 100 kts | 292° |
| 2026-05-07 15:37 | 51.42272 | -2.81387 | 1450 ft | 101 kts | 285° |
| 2026-05-07 15:37 | 51.42565 | -2.82443 | 1430 ft | 106 kts | 289° |
| 2026-05-07 15:37 | 51.42877 | -2.83495 | 1442 ft | 103 kts | 288° |
| 2026-05-07 15:38 | 51.43195 | -2.84500 | 1418 ft | 101 kts | 296° |
| 2026-05-07 15:38 | 51.43699 | -2.85322 | 1385 ft | 104 kts | 311° |
| 2026-05-07 15:38 | 51.44015 | -2.86265 | 1382 ft | 92 kts | 276° |
| 2026-05-07 15:38 | 51.44088 | -2.87258 | 1384 ft | 90 kts | 270° |
| 2026-05-07 15:39 | 51.44171 | -2.88270 | 1390 ft | 94 kts | 272° |
| 2026-05-07 15:39 | 51.44264 | -2.89325 | 1411 ft | 96 kts | 271° |
| 2026-05-07 15:39 | 51.44346 | -2.90404 | 1400 ft | 99 kts | 270° |
| 2026-05-07 15:39 | 51.44433 | -2.91497 | 1422 ft | 97 kts | 270° |
| 2026-05-07 15:40 | 51.44485 | -2.92563 | 1433 ft | 96 kts | 266° |
| 2026-05-07 15:40 | 51.44506 | -2.93632 | 1431 ft | 97 kts | 268° |
| 2026-05-07 15:40 | 51.44563 | -2.94717 | 1418 ft | 97 kts | 268° |
| 2026-05-07 15:40 | 51.44622 | -2.95797 | 1418 ft | 99 kts | 270° |
| 2026-05-07 15:41 | 51.44732 | -2.96903 | 1412 ft | 102 kts | 271° |
| 2026-05-07 15:41 | 51.44849 | -2.98021 | 1433 ft | 102 kts | 273° |
| 2026-05-07 15:41 | 51.44962 | -2.99154 | 1381 ft | 103 kts | 273° |
| 2026-05-07 15:41 | 51.45054 | -3.00276 | 1377 ft | 100 kts | 271° |
| 2026-05-07 15:42 | 51.45135 | -3.01388 | 1361 ft | 101 kts | 270° |
| 2026-05-07 15:42 | 51.45212 | -3.02505 | 1386 ft | 100 kts | 270° |
| 2026-05-07 15:42 | 51.45278 | -3.03613 | 1400 ft | 100 kts | 269° |
| 2026-05-07 15:42 | 51.45336 | -3.04722 | 1392 ft | 100 kts | 269° |
| 2026-05-07 15:43 | 51.45394 | -3.05823 | 1388 ft | 101 kts | 269° |
| 2026-05-07 15:43 | 51.45447 | -3.06965 | 1396 ft | 101 kts | 269° |
| 2026-05-07 15:43 | 51.45495 | -3.08070 | 1387 ft | 100 kts | 268° |
| 2026-05-07 15:43 | 51.45546 | -3.09184 | 1373 ft | 100 kts | 269° |
| 2026-05-07 15:44 | 51.45600 | -3.10296 | 1353 ft | 100 kts | 267° |
| 2026-05-07 15:44 | 51.45597 | -3.11407 | 1378 ft | 98 kts | 259° |
| 2026-05-07 15:44 | 51.45572 | -3.12499 | 1377 ft | 101 kts | 269° |
| 2026-05-07 15:44 | 51.45708 | -3.13604 | 1405 ft | 101 kts | 275° |
| 2026-05-07 15:45 | 51.45821 | -3.14717 | 1423 ft | 102 kts | 272° |
| 2026-05-07 15:45 | 51.45540 | -3.15669 | 1432 ft | 96 kts | 217° |
| 2026-05-07 15:45 | 51.45039 | -3.16338 | 1438 ft | 90 kts | 213° |
| 2026-05-07 15:45 | 51.44554 | -3.16888 | 1445 ft | 84 kts | 214° |
| 2026-05-07 15:46 | 51.43773 | -3.18171 | 1429 ft | 78 kts | 222° |
| 2026-05-07 15:46 | 51.43411 | -3.18796 | 1380 ft | 75 kts | 222° |
| 2026-05-07 15:46 | 51.43065 | -3.19405 | 1365 ft | 73 kts | 222° |
| 2026-05-07 15:47 | 51.42720 | -3.20003 | 1328 ft | 75 kts | 221° |
| 2026-05-07 15:47 | 51.42362 | -3.20613 | 1323 ft | 74 kts | 221° |
| 2026-05-07 15:47 | 51.41967 | -3.21137 | 1362 ft | 73 kts | 211° |
| 2026-05-07 15:47 | 51.41538 | -3.21605 | 1342 ft | 75 kts | 213° |
| 2026-05-07 15:48 | 51.41149 | -3.22145 | 1335 ft | 75 kts | 218° |
| 2026-05-07 15:48 | 51.40775 | -3.22717 | 1351 ft | 74 kts | 218° |
| 2026-05-07 15:48 | 51.40384 | -3.23270 | 1379 ft | 77 kts | 216° |
| 2026-05-07 15:48 | 51.39997 | -3.23849 | 1307 ft | 76 kts | 220° |
| 2026-05-07 15:49 | 51.39630 | -3.24473 | 1261 ft | 78 kts | 222° |
| 2026-05-07 15:49 | 51.39273 | -3.25116 | 1202 ft | 76 kts | 228° |
| 2026-05-07 15:49 | 51.38985 | -3.25827 | 1151 ft | 77 kts | 238° |
| 2026-05-07 15:49 | 51.38727 | -3.26616 | 1047 ft | 80 kts | 239° |
| 2026-05-07 15:50 | 51.38479 | -3.27402 | 928 ft | 80 kts | 243° |
| 2026-05-07 15:50 | 51.38256 | -3.28216 | 804 ft | 79 kts | 249° |
| 2026-05-07 15:50 | 51.38093 | -3.29036 | 694 ft | 77 kts | 260° |
| 2026-05-07 15:50 | 51.38208 | -3.29844 | 583 ft | 72 kts | 295° |
| 2026-05-07 15:51 | 51.38441 | -3.30567 | 449 ft | 71 kts | 297° |
| 2026-05-07 15:51 | 51.38663 | -3.31204 | 368 ft | 62 kts | 296° |
| 2026-05-07 15:51 | 51.38857 | -3.31802 | 323 ft | 57 kts | 295° |
| 2026-05-07 15:51 | 51.39008 | -3.32429 | 337 ft | 67 kts | 298° |
| 2026-05-07 15:52 | 51.39284 | -3.33070 | 492 ft | 72 kts | 301° |
| 2026-05-07 15:52 | 51.39528 | -3.33820 | 650 ft | 80 kts | 293° |
| 2026-05-07 15:52 | 51.39760 | -3.34663 | 837 ft | 90 kts | 290° |
| 2026-05-07 15:52 | 51.39849 | -3.35651 | 846 ft | 91 kts | 253° |
| 2026-05-07 15:53 | 51.39434 | -3.36430 | 898 ft | 97 kts | 214° |
| 2026-05-07 15:53 | 51.38822 | -3.36893 | 950 ft | 98 kts | 206° |
| 2026-05-07 15:53 | 51.38143 | -3.36898 | 954 ft | 105 kts | 158° |
| 2026-05-07 15:53 | 51.37582 | -3.36115 | 930 ft | 110 kts | 128° |
| 2026-05-07 15:54 | 51.37235 | -3.35032 | 955 ft | 109 kts | 112° |
| 2026-05-07 15:54 | 51.37029 | -3.33863 | 933 ft | 111 kts | 107° |
| 2026-05-07 15:54 | 51.36841 | -3.32664 | 908 ft | 108 kts | 117° |
| 2026-05-07 15:54 | 51.36584 | -3.31520 | 875 ft | 110 kts | 110° |
| 2026-05-07 15:55 | 51.36373 | -3.30410 | 856 ft | 99 kts | 108° |
| 2026-05-07 15:55 | 51.36586 | -3.29439 | 808 ft | 92 kts | 46° |
| 2026-05-07 15:55 | 51.37080 | -3.28764 | 679 ft | 95 kts | 34° |
| 2026-05-07 15:55 | 51.37601 | -3.28247 | 590 ft | 81 kts | 357° |
| 2026-05-07 15:56 | 51.38030 | -3.28587 | 559 ft | 64 kts | 292° |
| 2026-05-07 15:56 | 51.38194 | -3.29232 | 550 ft | 65 kts | 284° |
| 2026-05-07 15:56 | 51.38278 | -3.29960 | 586 ft | 68 kts | 281° |
| 2026-05-07 15:56 | 51.38417 | -3.30668 | 499 ft | 66 kts | 301° |
| 2026-05-07 15:57 | 51.38655 | -3.31264 | 413 ft | 64 kts | 301° |
| 2026-05-07 15:57 | 51.38874 | -3.31874 | 362 ft | 64 kts | 300° |
| 2026-05-07 15:57 | 51.39079 | -3.32493 | 328 ft | 62 kts | 298° |
| 2026-05-07 15:57 | 51.39268 | -3.33085 | 245 ft | 57 kts | 298° |
| 2026-05-07 15:58 | 51.39430 | -3.33599 | 218 ft | 44 kts | 297° |
| 2026-05-07 15:58 | 51.39543 | -3.33959 | 213 ft | 25 kts | 295° |
| 2026-05-07 15:58 | 51.39580 | -3.34123 | 213 ft | 14 kts | 253° |
| 2026-05-07 15:58 | 51.39562 | -3.34234 | 215 ft | 7 kts | 255° |
| 2026-05-07 15:59 | 51.39547 | -3.34323 | 217 ft | 9 kts | 256° |
| 2026-05-07 15:59 | 51.39529 | -3.34412 | 214 ft | 8 kts | 233° |
| 2026-05-07 15:59 | 51.39490 | -3.34448 | 216 ft | 5 kts | 202° |
| 2026-05-07 15:59 | 51.39492 | -3.34464 | 216 ft | 0 kts | 352° |